Time;durP1;ratioP1;P1;durP2;ratioP2;P2;SDS_P1;SDS_P2;PMS_P1;PMS_P2;Temp;Humidity;BMP_temperature;BMP_pressure;BME280_temperature;BME280_humidity;BME280_pressure;Samples;Min_cycle;Max_cycle;Signal;HPM_P1;HPM_P2
2022/02/15 00:01:55;;;;;;;4.60;2.60;;;7.00;99.70;;;;;;5070749;28;20470;-71
2022/02/15 00:04:22;;;;;;;3.47;2.53;;;7.00;99.70;;;;;;5070421;28;20985;-71
2022/02/15 00:06:50;;;;;;;3.33;2.30;;;7.00;99.70;;;;;;5070570;28;20560;-71
2022/02/15 00:09:17;;;;;;;3.60;2.30;;;7.00;99.70;;;;;;5070412;28;20458;-71
2022/02/15 00:11:43;;;;;;;4.63;2.30;;;7.00;99.70;;;;;;5069588;28;20467;-71
2022/02/15 00:14:10;;;;;;;3.40;2.40;;;7.10;99.70;;;;;;5070289;28;20450;-71
2022/02/15 00:16:37;;;;;;;3.90;2.57;;;7.10;99.70;;;;;;5070397;28;20463;-72
2022/02/15 00:19:05;;;;;;;2.90;2.20;;;7.10;99.70;;;;;;5070211;28;20450;-72
2022/02/15 00:21:31;;;;;;;3.90;2.30;;;7.10;99.70;;;;;;5070926;28;20474;-71
2022/02/15 00:24:00;;;;;;;3.40;2.50;;;7.00;99.70;;;;;;5070489;28;20490;-71
2022/02/15 00:26:26;;;;;;;4.07;2.30;;;7.00;99.70;;;;;;5070409;28;20447;-71
2022/02/15 00:28:53;;;;;;;3.97;2.47;;;6.90;99.70;;;;;;5070337;28;20461;-71
2022/02/15 00:31:20;;;;;;;3.93;2.50;;;6.90;99.70;;;;;;5070502;28;20462;-71
2022/02/15 00:33:47;;;;;;;3.80;2.40;;;6.90;99.70;;;;;;5070199;28;20442;-71
2022/02/15 00:36:15;;;;;;;3.40;2.30;;;6.90;99.70;;;;;;5070072;28;20442;-71
2022/02/15 00:38:42;;;;;;;4.17;2.57;;;6.90;99.70;;;;;;5070299;28;20457;-71
2022/02/15 00:41:10;;;;;;;4.53;2.60;;;6.90;99.70;;;;;;5069946;28;20462;-71
2022/02/15 00:43:37;;;;;;;3.57;2.60;;;6.90;99.70;;;;;;5070601;28;20482;-71
2022/02/15 00:46:04;;;;;;;3.60;2.53;;;6.90;99.70;;;;;;5070221;28;20458;-71
2022/02/15 00:48:31;;;;;;;5.00;2.60;;;6.80;99.70;;;;;;5069675;28;20443;-71
2022/02/15 00:50:58;;;;;;;4.83;3.23;;;6.80;99.70;;;;;;5069078;28;20458;-71
2022/02/15 00:53:25;;;;;;;4.30;2.77;;;6.80;99.70;;;;;;5063410;28;20431;-71
2022/02/15 00:55:51;;;;;;;4.23;2.83;;;6.80;99.70;;;;;;5069422;28;20443;-72
2022/02/15 00:58:19;;;;;;;3.33;2.53;;;6.70;99.70;;;;;;5069538;28;20829;-71
2022/02/15 01:00:46;;;;;;;4.07;2.60;;;6.80;99.70;;;;;;5069314;28;20470;-70
2022/02/15 01:03:13;;;;;;;3.57;2.67;;;6.80;99.70;;;;;;5069143;28;20482;-71
2022/02/15 01:05:39;;;;;;;3.90;2.50;;;6.80;99.70;;;;;;5069234;28;20465;-71
2022/02/15 01:08:06;;;;;;;7.00;2.80;;;6.80;99.70;;;;;;5069410;28;20450;-71
2022/02/15 01:10:33;;;;;;;3.47;2.40;;;6.80;99.70;;;;;;5070926;28;20462;-71
2022/02/15 01:13:00;;;;;;;4.20;2.60;;;6.80;99.70;;;;;;5072756;28;20470;-71
2022/02/15 01:15:28;;;;;;;4.50;2.40;;;6.70;99.70;;;;;;5073028;28;20526;-71
2022/02/15 01:17:55;;;;;;;4.57;2.97;;;6.70;99.70;;;;;;5073002;28;20435;-71
2022/02/15 01:20:22;;;;;;;4.50;2.80;;;6.60;99.70;;;;;;5073370;28;20454;-71
2022/02/15 01:22:49;;;;;;;3.33;2.43;;;6.60;99.70;;;;;;5072686;28;20486;-71
2022/02/15 01:25:15;;;;;;;3.40;2.50;;;6.60;99.70;;;;;;5072494;28;20454;-70
2022/02/15 01:27:42;;;;;;;4.20;2.50;;;6.60;99.70;;;;;;5073193;28;20447;-71
2022/02/15 01:30:09;;;;;;;3.50;2.33;;;6.60;99.70;;;;;;5072570;28;20451;-71
2022/02/15 01:32:37;;;;;;;4.00;2.60;;;6.60;99.70;;;;;;5072800;28;20466;-71
2022/02/15 01:35:05;;;;;;;3.57;2.23;;;6.50;99.70;;;;;;5072902;28;20443;-71
2022/02/15 01:37:31;;;;;;;3.60;2.20;;;6.50;99.70;;;;;;5072741;28;20443;-71
2022/02/15 01:39:58;;;;;;;3.70;2.40;;;6.70;99.70;;;;;;5073021;28;20454;-71
2022/02/15 01:42:25;;;;;;;4.50;2.60;;;6.50;99.70;;;;;;5072155;28;20473;-71
2022/02/15 01:44:52;;;;;;;3.87;2.40;;;6.50;99.70;;;;;;5072390;28;20478;-71
2022/02/15 01:47:22;;;;;;;4.30;2.50;;;6.40;99.70;;;;;;5073040;28;20448;-71
2022/02/15 01:49:51;;;;;;;3.77;2.33;;;6.40;99.70;;;;;;5072415;28;20446;-71
2022/02/15 01:52:20;;;;;;;3.80;2.27;;;6.40;99.70;;;;;;5072512;28;20497;-71
2022/02/15 01:54:48;;;;;;;4.23;2.40;;;6.40;99.70;;;;;;5062051;28;20461;-69
2022/02/15 01:57:15;;;;;;;3.57;2.13;;;6.30;99.70;;;;;;5072192;28;20473;-71
2022/02/15 01:59:42;;;;;;;3.13;2.17;;;6.30;99.70;;;;;;5072630;28;20443;-71
2022/02/15 02:02:08;;;;;;;4.40;2.40;;;6.30;99.70;;;;;;5072118;28;20469;-71
2022/02/15 02:07:21;;;;;;;4.97;2.30;;;6.20;99.70;;;;;;5072305;28;20584;-70
2022/02/15 02:09:47;;;;;;;4.40;2.33;;;6.30;99.70;;;;;;5072306;28;20439;-71
2022/02/15 02:12:14;;;;;;;4.00;2.30;;;6.30;99.70;;;;;;5071399;28;20467;-71
2022/02/15 02:14:41;;;;;;;3.63;2.20;;;6.20;99.70;;;;;;5072347;28;20950;-71
2022/02/15 02:17:08;;;;;;;3.20;2.30;;;6.30;99.70;;;;;;5071613;28;20453;-71
2022/02/15 02:19:34;;;;;;;3.70;2.23;;;6.30;99.70;;;;;;5071755;28;20446;-71
2022/02/15 02:22:04;;;;;;;4.20;2.40;;;6.30;99.70;;;;;;5070671;28;21008;-71
2022/02/15 02:24:30;;;;;;;3.93;2.37;;;6.10;99.70;;;;;;5071879;28;20942;-71
2022/02/15 02:26:57;;;;;;;7.23;3.00;;;6.10;99.70;;;;;;5071656;28;20692;-71
2022/02/15 02:29:24;;;;;;;6.87;3.37;;;6.10;99.70;;;;;;5071745;28;20462;-71
2022/02/15 02:31:51;;;;;;;6.23;3.17;;;6.10;99.70;;;;;;5071627;28;20816;-71
2022/02/15 02:34:18;;;;;;;5.50;2.67;;;6.20;99.70;;;;;;5071819;28;20442;-71
2022/02/15 02:36:45;;;;;;;3.80;2.60;;;6.20;99.70;;;;;;5072043;28;20512;-72
2022/02/15 02:39:13;;;;;;;3.63;2.63;;;6.30;99.70;;;;;;5072056;28;20468;-71
2022/02/15 02:41:40;;;;;;;6.53;2.90;;;6.30;99.70;;;;;;5071611;28;20938;-71
2022/02/15 02:44:07;;;;;;;4.70;2.80;;;6.30;99.70;;;;;;5071878;28;20474;-71
2022/02/15 02:46:34;;;;;;;6.33;2.70;;;6.20;99.70;;;;;;5071969;28;20450;-71
2022/02/15 02:49:01;;;;;;;4.87;3.03;;;6.20;99.70;;;;;;5071968;28;20965;-72
2022/02/15 02:51:27;;;;;;;6.00;2.80;;;6.20;99.70;;;;;;5071920;28;20459;-71
2022/02/15 02:53:54;;;;;;;3.80;2.40;;;6.20;99.70;;;;;;5071801;28;20441;-71
2022/02/15 02:56:22;;;;;;;4.93;2.90;;;6.30;99.70;;;;;;5071914;28;20450;-71
2022/02/15 02:58:49;;;;;;;5.10;2.70;;;6.10;99.70;;;;;;5071825;28;20818;-71
2022/02/15 03:01:16;;;;;;;4.60;2.70;;;6.00;99.70;;;;;;5071860;28;20471;-72
2022/02/15 03:03:42;;;;;;;6.33;2.97;;;6.00;99.70;;;;;;5071791;28;20483;-71
2022/02/15 03:06:09;;;;;;;3.53;2.53;;;6.00;99.70;;;;;;5071697;28;20828;-71
2022/02/15 03:08:36;;;;;;;3.70;2.57;;;6.00;99.70;;;;;;5071641;28;20445;-71
2022/02/15 03:11:03;;;;;;;5.07;2.53;;;6.10;99.70;;;;;;5071762;28;20450;-71
2022/02/15 03:13:31;;;;;;;3.47;2.33;;;6.10;99.70;;;;;;5071291;28;20446;-71
2022/02/15 03:15:58;;;;;;;4.80;2.60;;;6.10;99.70;;;;;;5071364;28;20820;-71
2022/02/15 03:18:24;;;;;;;5.33;2.47;;;6.20;99.70;;;;;;5071610;28;20449;-71
2022/02/15 03:20:51;;;;;;;5.47;2.30;;;6.10;99.70;;;;;;5071354;28;20450;-71
2022/02/15 03:23:19;;;;;;;5.10;2.47;;;6.00;99.70;;;;;;5071379;28;20443;-71
2022/02/15 03:25:45;;;;;;;4.13;2.33;;;6.00;99.70;;;;;;5071233;28;20550;-71
2022/02/15 03:28:12;;;;;;;3.90;2.40;;;6.00;99.70;;;;;;5071333;28;20953;-71
2022/02/15 03:30:40;;;;;;;4.57;2.87;;;6.20;99.70;;;;;;5071195;28;20458;-71
2022/02/15 03:33:07;;;;;;;3.60;2.33;;;6.30;99.70;;;;;;5071084;28;20470;-71
2022/02/15 03:35:33;;;;;;;4.43;2.30;;;6.20;99.70;;;;;;5071063;28;20514;-71
2022/02/15 03:38:00;;;;;;;4.73;2.50;;;6.20;99.70;;;;;;5071198;28;20453;-71
2022/02/15 03:43:04;;;;;;;3.13;2.40;;;6.20;99.70;;;;;;5070745;28;20447;-71
2022/02/15 03:43:14;;;;;;;4.60;2.10;;;6.10;99.70;;;;;;5070857;28;20903;-71
2022/02/15 03:45:42;;;;;;;6.53;2.67;;;6.00;99.70;;;;;;5070874;28;20470;-71
2022/02/15 03:48:09;;;;;;;3.60;2.50;;;6.00;99.70;;;;;;5070993;28;20447;-72
2022/02/15 03:50:36;;;;;;;4.37;2.30;;;6.00;99.70;;;;;;5070836;28;20961;-71
2022/02/15 03:53:04;;;;;;;5.87;2.60;;;6.00;99.70;;;;;;5071123;28;20470;-71
2022/02/15 03:55:31;;;;;;;6.93;2.63;;;6.00;99.70;;;;;;5070647;28;20512;-71
2022/02/15 03:57:58;;;;;;;4.20;2.43;;;6.00;99.70;;;;;;5070839;28;20447;-71
2022/02/15 04:00:24;;;;;;;4.33;2.47;;;6.00;99.70;;;;;;5070792;28;20445;-71
2022/02/15 04:02:54;;;;;;;4.10;2.40;;;6.10;99.70;;;;;;5070880;28;20473;-71
2022/02/15 04:05:22;;;;;;;4.60;2.60;;;6.00;99.70;;;;;;5070682;28;20889;-71
2022/02/15 04:07:49;;;;;;;6.10;2.60;;;6.00;99.70;;;;;;5070867;28;20592;-71
2022/02/15 04:10:17;;;;;;;4.23;2.40;;;6.00;99.70;;;;;;5070570;28;20439;-71
2022/02/15 04:12:43;;;;;;;4.77;2.87;;;6.00;99.70;;;;;;5070488;28;20466;-71
2022/02/15 04:15:10;;;;;;;6.50;2.63;;;6.00;99.70;;;;;;5070410;28;20435;-71
2022/02/15 04:17:37;;;;;;;4.50;2.30;;;6.00;99.70;;;;;;5070775;28;20443;-71
2022/02/15 04:20:07;;;;;;;4.80;2.37;;;6.10;99.70;;;;;;5070584;28;20447;-71
2022/02/15 04:22:33;;;;;;;4.43;3.00;;;6.00;99.70;;;;;;5070640;28;20816;-71
2022/02/15 04:25:01;;;;;;;7.67;2.77;;;6.00;99.70;;;;;;5070451;28;20481;-71
2022/02/15 04:27:28;;;;;;;4.13;2.50;;;6.00;99.70;;;;;;5070555;28;20450;-71
2022/02/15 04:29:55;;;;;;;5.80;2.53;;;6.00;99.70;;;;;;5070596;28;20443;-71
2022/02/15 04:32:22;;;;;;;4.50;2.93;;;6.10;99.70;;;;;;5070385;28;20466;-71
2022/02/15 04:34:49;;;;;;;6.40;2.90;;;6.00;99.70;;;;;;5070321;28;20910;-71
2022/02/15 04:37:17;;;;;;;7.97;2.70;;;6.00;99.70;;;;;;5070395;28;20829;-71
2022/02/15 04:39:44;;;;;;;6.80;2.60;;;6.00;99.70;;;;;;5070404;28;20442;-71
2022/02/15 04:42:11;;;;;;;4.80;2.70;;;6.00;99.70;;;;;;5069755;28;21006;-71
2022/02/15 04:44:38;;;;;;;5.17;3.00;;;6.10;99.70;;;;;;5070543;28;20478;-71
2022/02/15 04:47:05;;;;;;;6.83;2.50;;;6.10;99.70;;;;;;5096995;22;20858;-63
2022/02/15 04:49:32;;;;;;;5.27;2.70;;;6.20;99.70;;;;;;5073281;28;20442;-64
2022/02/15 04:51:59;;;;;;;5.90;2.60;;;6.10;99.70;;;;;;5074816;28;20525;-64
2022/02/15 04:54:27;;;;;;;3.53;2.50;;;6.00;99.70;;;;;;5074843;28;20445;-65
2022/02/15 04:56:54;;;;;;;5.13;2.70;;;6.00;99.70;;;;;;5074289;28;20463;-64
2022/02/15 04:59:21;;;;;;;5.90;2.60;;;6.00;99.70;;;;;;5074701;28;20504;-66
2022/02/15 05:01:48;;;;;;;2.73;2.20;;;6.00;99.70;;;;;;5073527;28;20447;-64
2022/02/15 05:06:55;;;;;;;4.30;2.77;;;6.20;99.70;;;;;;5073225;28;20454;-63
2022/02/15 05:09:22;;;;;;;5.17;2.87;;;6.20;99.70;;;;;;5074408;28;20445;-66
2022/02/15 05:11:50;;;;;;;4.60;2.70;;;6.10;99.70;;;;;;5073410;28;20820;-63
2022/02/15 05:14:17;;;;;;;5.63;2.90;;;6.10;99.70;;;;;;5074535;28;20435;-66
2022/02/15 05:16:44;;;;;;;7.07;3.17;;;6.10;99.70;;;;;;5073973;28;20443;-66
2022/02/15 05:19:10;;;;;;;6.03;3.00;;;6.10;99.70;;;;;;5074127;28;20466;-66
2022/02/15 05:21:37;;;;;;;6.23;2.97;;;6.20;99.70;;;;;;5074204;28;20441;-65
2022/02/15 05:24:05;;;;;;;7.10;3.03;;;6.30;99.70;;;;;;5074238;28;20860;-64
2022/02/15 05:26:31;;;;;;;5.33;3.27;;;6.20;99.70;;;;;;5073787;28;20450;-64
2022/02/15 05:28:59;;;;;;;5.30;2.70;;;6.30;99.70;;;;;;5074287;28;20850;-64
2022/02/15 05:31:26;;;;;;;6.80;3.30;;;6.20;99.70;;;;;;5074079;28;20450;-64
2022/02/15 05:33:53;;;;;;;6.30;3.10;;;6.20;99.70;;;;;;5074020;28;20447;-64
2022/02/15 05:36:20;;;;;;;5.77;2.77;;;6.10;99.70;;;;;;5073780;28;20469;-65
2022/02/15 05:38:47;;;;;;;8.30;3.10;;;6.10;99.70;;;;;;5073845;28;20458;-65
2022/02/15 05:41:14;;;;;;;6.10;3.03;;;6.10;99.70;;;;;;5073874;28;20813;-65
2022/02/15 05:43:40;;;;;;;4.53;2.63;;;6.10;99.70;;;;;;5073816;28;20450;-66
2022/02/15 05:46:08;;;;;;;6.23;2.80;;;6.10;99.70;;;;;;5073590;28;20500;-65
2022/02/15 05:48:35;;;;;;;7.43;2.87;;;6.10;99.70;;;;;;5074383;28;20478;-65
2022/02/15 05:51:02;;;;;;;6.07;3.07;;;6.10;99.70;;;;;;5073673;28;20822;-65
2022/02/15 05:53:31;;;;;;;9.67;3.63;;;6.10;99.70;;;;;;5073607;28;20439;-65
2022/02/15 05:56:01;;;;;;;6.00;2.93;;;6.10;99.70;;;;;;5073006;28;20438;-65
2022/02/15 05:58:29;;;;;;;5.97;3.30;;;6.10;99.70;;;;;;5073291;28;20473;-65
2022/02/15 06:00:56;;;;;;;8.80;5.10;;;6.00;99.70;;;;;;5073476;28;20446;-64
2022/02/15 06:06:09;;;;;;;7.13;4.73;;;6.00;99.70;;;;;;5073381;28;20990;-64
2022/02/15 06:08:36;;;;;;;7.63;4.10;;;5.90;99.70;;;;;;5072989;28;20463;-64
2022/02/15 06:11:03;;;;;;;7.43;3.87;;;5.90;99.70;;;;;;5073596;28;20443;-65
2022/02/15 06:13:30;;;;;;;7.83;4.17;;;5.90;99.70;;;;;;5072300;28;20828;-65
2022/02/15 06:15:57;;;;;;;5.33;3.67;;;5.90;99.70;;;;;;5073016;28;20439;-64
2022/02/15 06:18:25;;;;;;;9.50;4.30;;;5.90;99.70;;;;;;5072923;28;20463;-65
2022/02/15 06:20:51;;;;;;;5.50;3.57;;;5.90;99.70;;;;;;5073103;28;20443;-65
2022/02/15 06:23:18;;;;;;;12.00;5.20;;;5.90;99.70;;;;;;5073161;28;20478;-65
2022/02/15 06:25:45;;;;;;;9.83;5.00;;;6.00;99.70;;;;;;5072799;28;20477;-65
2022/02/15 06:28:12;;;;;;;11.93;4.90;;;5.90;99.70;;;;;;5072783;28;20551;-64
2022/02/15 06:30:38;;;;;;;9.17;4.97;;;6.00;99.70;;;;;;5072942;28;20451;-64
2022/02/15 06:33:05;;;;;;;9.93;5.30;;;5.90;99.70;;;;;;5073070;28;20973;-65
2022/02/15 06:35:33;;;;;;;7.87;5.03;;;6.00;99.70;;;;;;5072672;28;20447;-65
2022/02/15 06:38:00;;;;;;;8.37;4.87;;;6.00;99.70;;;;;;5072664;28;20469;-64
2022/02/15 06:40:27;;;;;;;11.23;6.03;;;5.90;99.70;;;;;;5072792;28;20942;-65
2022/02/15 06:42:53;;;;;;;7.70;4.60;;;5.80;99.70;;;;;;5072756;28;20446;-64
2022/02/15 06:45:20;;;;;;;8.20;4.60;;;5.80;99.70;;;;;;5072384;28;20482;-65
2022/02/15 06:47:47;;;;;;;7.83;4.30;;;5.80;99.70;;;;;;5072318;28;20471;-64
2022/02/15 06:50:14;;;;;;;10.00;4.90;;;5.80;99.70;;;;;;5072609;28;20443;-64
2022/02/15 06:52:42;;;;;;;11.13;5.27;;;5.80;99.70;;;;;;5072517;28;20450;-64
2022/02/15 06:55:10;;;;;;;7.60;4.20;;;6.20;99.70;;;;;;5071405;28;20805;-65
2022/02/15 06:57:36;;;;;;;8.60;4.53;;;6.10;99.70;;;;;;5069396;28;20890;-65
2022/02/15 07:00:04;;;;;;;15.23;5.07;;;6.10;99.70;;;;;;5071141;28;20442;-65
2022/02/15 07:02:31;;;;;;;9.13;4.10;;;6.10;99.70;;;;;;5069922;28;20892;-65
2022/02/15 07:04:58;;;;;;;8.20;3.97;;;6.10;99.70;;;;;;5071460;28;20478;-64
2022/02/15 07:07:25;;;;;;;5.47;3.10;;;6.20;99.70;;;;;;5071204;28;20467;-64
2022/02/15 07:09:53;;;;;;;7.83;3.63;;;6.30;99.70;;;;;;5071437;28;20956;-65
2022/02/15 07:12:20;;;;;;;5.90;2.87;;;6.20;99.70;;;;;;5067373;28;20459;-65
2022/02/15 07:14:47;;;;;;;5.93;3.30;;;6.30;99.70;;;;;;5067935;28;20870;-63
2022/02/15 07:17:13;;;;;;;7.67;3.50;;;6.20;99.70;;;;;;5066529;28;20482;-66
2022/02/15 07:19:40;;;;;;;5.10;3.57;;;6.30;99.70;;;;;;5071672;28;20501;-65
2022/02/15 07:22:07;;;;;;;5.60;3.63;;;6.30;99.70;;;;;;5066362;28;20466;-65
2022/02/15 07:24:35;;;;;;;4.97;3.10;;;6.30;99.70;;;;;;5075068;28;20485;-64
2022/02/15 07:27:03;;;;;;;7.30;3.47;;;6.50;99.70;;;;;;5067772;28;20581;-65
2022/02/15 07:29:29;;;;;;;7.30;3.60;;;6.60;99.70;;;;;;5071072;28;20454;-65
2022/02/15 07:31:56;;;;;;;4.90;3.10;;;6.50;99.70;;;;;;5071325;28;20447;-65
2022/02/15 07:34:23;;;;;;;8.80;3.90;;;6.40;99.70;;;;;;5067913;28;20474;-64
2022/02/15 07:36:51;;;;;;;9.40;4.00;;;6.50;99.70;;;;;;5071044;28;20463;-64
2022/02/15 07:39:18;;;;;;;11.47;3.73;;;6.50;99.70;;;;;;5071137;28;20466;-65
2022/02/15 07:41:47;;;;;;;8.07;4.10;;;6.40;99.70;;;;;;5071115;28;20439;-65
2022/02/15 07:44:16;;;;;;;8.30;4.13;;;6.40;99.70;;;;;;5067852;28;20848;-65
2022/02/15 07:46:46;;;;;;;6.83;3.97;;;6.40;99.70;;;;;;5067816;28;20482;-65
2022/02/15 07:49:13;;;;;;;8.70;4.37;;;6.30;99.70;;;;;;5070057;28;20501;-65
2022/02/15 07:51:40;;;;;;;10.03;4.57;;;6.40;99.70;;;;;;5069955;28;20856;-65
2022/02/15 07:54:07;;;;;;;8.77;4.27;;;6.40;99.70;;;;;;5071049;28;20451;-65
2022/02/15 07:56:36;;;;;;;8.17;4.47;;;6.40;99.70;;;;;;5067459;28;20512;-65
2022/02/15 07:59:05;;;;;;;11.70;4.80;;;6.40;99.70;;;;;;5070182;28;20934;-65
2022/02/15 08:01:33;;;;;;;7.73;4.10;;;6.50;99.70;;;;;;5069609;28;20443;-66
2022/02/15 08:04:00;;;;;;;10.40;5.10;;;6.50;99.70;;;;;;5068802;28;20671;-66
2022/02/15 08:06:27;;;;;;;12.07;4.70;;;6.60;99.70;;;;;;5068140;28;20482;-66
2022/02/15 08:08:54;;;;;;;12.00;5.30;;;6.40;99.70;;;;;;5068834;28;20532;-66
2022/02/15 08:11:21;;;;;;;8.13;4.70;;;6.40;99.70;;;;;;5067354;28;20961;-66
2022/02/15 08:13:49;;;;;;;7.67;4.37;;;6.70;99.70;;;;;;5069202;28;20465;-66
2022/02/15 08:16:16;;;;;;;11.70;4.63;;;6.70;99.70;;;;;;5068698;28;20470;-66
2022/02/15 08:18:44;;;;;;;8.57;4.43;;;6.80;99.70;;;;;;5070803;28;20478;-66
2022/02/15 08:21:11;;;;;;;10.93;4.83;;;6.80;99.70;;;;;;5070634;28;20454;-66
2022/02/15 08:23:38;;;;;;;7.10;4.30;;;6.80;99.70;;;;;;5070834;28;20889;-66
2022/02/15 08:26:05;;;;;;;8.70;4.70;;;6.80;99.70;;;;;;5069971;28;21056;-66
2022/02/15 08:28:39;;;;;;;8.20;4.60;;;6.80;99.70;;;;;;5070492;28;21022;-67
2022/02/15 08:31:06;;;;;;;6.93;4.63;;;6.70;99.70;;;;;;5070595;28;20493;-67
2022/02/15 08:33:36;;;;;;;7.97;4.30;;;6.70;99.70;;;;;;5070781;28;20833;-66
2022/02/15 08:36:05;;;;;;;9.20;4.50;;;6.60;99.70;;;;;;5070215;28;20745;-65
2022/02/15 08:38:33;;;;;;;9.70;4.77;;;6.70;99.70;;;;;;5070605;28;20470;-66
2022/02/15 08:41:00;;;;;;;12.30;4.67;;;6.90;99.70;;;;;;5070362;28;20922;-66
2022/02/15 08:43:27;;;;;;;9.07;4.93;;;7.00;99.70;;;;;;5070833;28;20443;-66
2022/02/15 08:45:54;;;;;;;9.80;4.00;;;7.10;99.70;;;;;;5070083;28;20482;-66
2022/02/15 08:48:21;;;;;;;8.20;4.30;;;7.10;99.70;;;;;;5070382;28;20475;-66
2022/02/15 08:50:48;;;;;;;7.43;4.20;;;7.30;99.70;;;;;;5070323;28;20451;-66
2022/02/15 08:53:16;;;;;;;7.30;3.90;;;7.40;99.70;;;;;;5070600;28;20450;-66
2022/02/15 08:55:43;;;;;;;7.03;4.40;;;7.40;99.70;;;;;;5070241;28;20458;-66
2022/02/15 08:58:09;;;;;;;7.70;4.27;;;7.30;99.70;;;;;;5070344;28;20525;-66
2022/02/15 09:00:36;;;;;;;10.83;4.80;;;7.40;99.70;;;;;;5069870;28;20449;-66
2022/02/15 09:03:03;;;;;;;7.77;4.37;;;7.50;99.70;;;;;;5070076;28;20474;-66
2022/02/15 09:05:30;;;;;;;9.23;4.23;;;7.60;99.70;;;;;;5070181;28;20486;-66
2022/02/15 09:07:57;;;;;;;7.70;4.13;;;7.60;99.70;;;;;;5069270;28;20462;-66
2022/02/15 09:10:25;;;;;;;7.83;4.47;;;7.60;99.70;;;;;;5070486;28;20458;-66
2022/02/15 09:12:52;;;;;;;6.40;3.80;;;7.70;99.70;;;;;;5069468;28;20752;-66
2022/02/15 09:15:18;;;;;;;7.07;4.17;;;7.70;99.70;;;;;;5070046;28;20442;-66
2022/02/15 09:17:45;;;;;;;6.03;3.80;;;7.60;99.70;;;;;;5069944;28;20469;-66
2022/02/15 09:20:12;;;;;;;5.40;3.20;;;7.60;99.70;;;;;;5070403;28;20470;-66
2022/02/15 09:22:40;;;;;;;8.20;4.00;;;7.70;99.70;;;;;;5070068;28;20454;-66
2022/02/15 09:25:10;;;;;;;5.47;3.40;;;7.70;99.70;;;;;;5070010;28;20439;-66
2022/02/15 09:27:38;;;;;;;6.57;3.97;;;7.80;99.70;;;;;;5069976;28;20474;-66
2022/02/15 09:30:06;;;;;;;6.77;3.60;;;7.80;99.70;;;;;;5070130;28;20447;-66
2022/02/15 09:32:33;;;;;;;6.23;3.67;;;7.70;99.70;;;;;;5072018;28;20536;-66
2022/02/15 09:35:00;;;;;;;8.67;4.00;;;7.90;99.70;;;;;;5073450;28;20446;-66
2022/02/15 09:37:26;;;;;;;5.33;3.20;;;8.20;99.70;;;;;;5073587;28;20477;-67
2022/02/15 09:39:55;;;;;;;5.07;3.43;;;8.10;99.70;;;;;;5061803;28;20456;-63
2022/02/15 09:42:22;;;;;;;4.80;3.20;;;8.10;99.70;;;;;;5073435;28;20472;-66
2022/02/15 09:44:50;;;;;;;5.70;2.80;;;8.10;99.70;;;;;;5073273;28;20446;-63
2022/02/15 09:47:23;;;;;;;5.30;2.90;;;8.10;99.70;;;;;;5072319;28;20478;-64
2022/02/15 09:49:51;;;;;;;5.23;3.20;;;8.20;99.70;;;;;;5072064;28;20470;-64
2022/02/15 09:52:19;;;;;;;6.10;3.43;;;8.30;99.70;;;;;;5072964;28;20461;-64
2022/02/15 09:54:46;;;;;;;5.70;3.30;;;8.40;99.70;;;;;;5070656;28;20442;-60
2022/02/15 09:57:14;;;;;;;3.57;2.60;;;8.80;99.70;;;;;;5073136;28;20985;-64
2022/02/15 09:59:41;;;;;;;4.07;2.50;;;8.80;99.70;;;;;;5072207;28;20446;-63
2022/02/15 10:02:14;;;;;;;5.00;2.80;;;8.50;99.70;;;;;;5068434;28;20529;-63
2022/02/15 10:04:41;;;;;;;5.23;2.60;;;8.60;99.70;;;;;;5067086;28;20978;-63
2022/02/15 10:07:09;;;;;;;4.50;2.70;;;8.50;99.70;;;;;;5067853;28;20488;-63
2022/02/15 10:09:36;;;;;;;3.40;2.20;;;8.50;99.70;;;;;;5072033;28;20438;-66
2022/02/15 10:12:06;;;;;;;4.07;2.60;;;8.40;99.70;;;;;;5072375;28;20746;-67
2022/02/15 10:14:36;;;;;;;5.50;2.70;;;8.30;99.70;;;;;;5072662;28;20504;-66
2022/02/15 10:17:03;;;;;;;4.90;2.53;;;8.60;99.70;;;;;;5072787;28;20797;-66
2022/02/15 10:19:31;;;;;;;7.10;2.90;;;8.70;99.70;;;;;;5072445;28;20458;-64
2022/02/15 10:22:00;;;;;;;4.60;2.77;;;8.80;99.70;;;;;;5072144;28;20482;-62
2022/02/15 10:24:30;;;;;;;3.87;2.53;;;8.70;99.70;;;;;;5067579;28;20451;-63
2022/02/15 10:26:59;;;;;;;4.03;2.37;;;8.70;99.70;;;;;;5067968;28;21061;-66
2022/02/15 10:29:27;;;;;;;3.40;2.10;;;8.60;99.70;;;;;;5067760;28;20458;-61
2022/02/15 10:31:58;;;;;;;4.87;2.30;;;8.70;99.70;;;;;;5068727;28;20885;-63
2022/02/15 10:34:25;;;;;;;5.97;2.57;;;8.80;99.70;;;;;;5071909;28;20469;-63
2022/02/15 10:37:00;;;;;;;3.73;2.50;;;8.70;99.70;;;;;;5072146;28;20463;-63
2022/02/15 10:39:38;;;;;;;5.20;2.60;;;8.80;99.70;;;;;;5072208;28;20535;-63
2022/02/15 10:42:07;;;;;;;3.80;2.37;;;8.90;99.70;;;;;;5071893;28;21027;-63
2022/02/15 10:44:36;;;;;;;5.40;2.37;;;8.60;99.70;;;;;;5071805;28;20450;-63
2022/02/15 10:49:30;;;;;;;5.03;2.37;;;8.50;99.70;;;;;;5107094;22;20927;-72
2022/02/15 10:51:59;;;;;;;4.50;2.50;;;8.40;99.70;;;;;;5053402;28;20793;-72
2022/02/15 10:54:25;;;;;;;3.93;2.13;;;8.50;99.70;;;;;;5056191;28;20450;-72
2022/02/15 10:56:52;;;;;;;5.60;2.60;;;8.30;99.70;;;;;;5069961;28;20439;-72
2022/02/15 10:59:21;;;;;;;3.77;2.30;;;8.30;99.70;;;;;;5068196;28;20471;-71
2022/02/15 11:01:47;;;;;;;3.17;2.20;;;8.20;99.70;;;;;;5070677;28;20999;-72
2022/02/15 11:04:17;;;;;;;4.03;2.20;;;8.00;99.70;;;;;;5068952;28;20438;-70
2022/02/15 11:06:44;;;;;;;4.57;2.20;;;8.00;99.70;;;;;;5058825;28;20479;-70
2022/02/15 11:09:15;;;;;;;4.40;2.50;;;8.00;99.70;;;;;;5054118;28;20474;-70
2022/02/15 11:12:02;;;;;;;3.10;2.10;;;8.00;99.70;;;;;;5052671;28;20537;-71
2022/02/15 11:14:29;;;;;;;2.97;2.30;;;8.00;99.70;;;;;;5057209;28;20873;-70
2022/02/15 11:16:55;;;;;;;5.10;2.40;;;8.00;99.70;;;;;;5070088;28;20451;-70
2022/02/15 11:19:32;;;;;;;3.87;2.50;;;7.90;99.70;;;;;;5065743;28;20801;-70
2022/02/15 11:21:59;;;;;;;4.30;2.27;;;8.10;99.70;;;;;;5053077;28;20444;-70
2022/02/15 11:24:27;;;;;;;3.40;2.00;;;8.10;99.70;;;;;;5054089;28;20454;-70
2022/02/15 11:26:54;;;;;;;2.87;2.00;;;8.20;99.70;;;;;;5052513;28;20879;-70
2022/02/15 11:29:22;;;;;;;3.90;2.33;;;8.20;99.70;;;;;;5052955;28;20885;-70
2022/02/15 11:31:49;;;;;;;3.30;2.03;;;8.20;99.70;;;;;;5052780;28;20471;-70
2022/02/15 11:34:16;;;;;;;3.37;1.90;;;8.30;99.70;;;;;;5064938;28;20481;-70
2022/02/15 11:36:47;;;;;;;6.53;1.80;;;8.30;99.70;;;;;;5069590;28;20439;-70
2022/02/15 11:39:18;;;;;;;4.70;2.10;;;8.20;99.70;;;;;;5067974;28;20515;-70
2022/02/15 11:41:48;;;;;;;3.83;2.00;;;8.20;99.70;;;;;;5069813;28;20554;-69
2022/02/15 11:44:15;;;;;;;3.73;1.87;;;8.10;99.70;;;;;;5068086;28;20501;-70
2022/02/15 11:46:44;;;;;;;3.03;1.97;;;8.00;99.70;;;;;;5069517;28;20560;-70
2022/02/15 11:49:12;;;;;;;4.40;2.20;;;8.10;99.70;;;;;;5067791;28;20483;-70
2022/02/15 11:51:41;;;;;;;4.00;2.20;;;8.00;99.70;;;;;;5069634;28;20864;-68
2022/02/15 11:54:12;;;;;;;3.60;2.20;;;8.00;99.70;;;;;;5067720;28;20450;-69
2022/02/15 11:56:39;;;;;;;34.37;3.57;;;8.00;99.70;;;;;;5069314;28;20450;-70
2022/02/15 11:59:16;;;;;;;5.70;2.30;;;8.10;99.70;;;;;;5067497;28;20474;-69
2022/02/15 12:01:44;;;;;;;6.13;2.20;;;8.20;99.70;;;;;;5041685;28;20877;-72
2022/02/15 12:04:12;;;;;;;9.70;2.60;;;8.10;99.70;;;;;;5053506;28;20479;-69
2022/02/15 12:06:41;;;;;;;70.97;7.40;;;8.20;99.70;;;;;;5051502;28;20502;-70
2022/02/15 12:09:09;;;;;;;4.07;2.10;;;8.20;99.70;;;;;;5053405;28;20771;-70
2022/02/15 12:11:37;;;;;;;20.33;3.37;;;8.20;99.70;;;;;;5051334;28;20453;-69
2022/02/15 12:14:08;;;;;;;28.93;4.40;;;8.20;99.70;;;;;;5052982;28;20880;-71
2022/02/15 12:16:47;;;;;;;4.27;2.00;;;8.30;99.70;;;;;;5040481;28;20444;-70
2022/02/15 12:19:22;;;;;;;12.90;2.33;;;8.30;99.70;;;;;;5053012;28;20478;-70
2022/02/15 12:21:48;;;;;;;46.57;5.23;;;8.30;99.70;;;;;;5051996;28;20443;-70
2022/02/15 12:24:16;;;;;;;4.10;1.93;;;8.50;99.70;;;;;;5053357;28;20818;-71
2022/02/15 12:26:43;;;;;;;6.40;1.93;;;8.60;99.70;;;;;;5051623;28;20537;-71
2022/02/15 12:29:11;;;;;;;4.77;1.97;;;8.60;99.70;;;;;;5053017;28;20482;-71
2022/02/15 12:31:39;;;;;;;7.67;2.37;;;8.60;99.70;;;;;;5051708;28;20505;-72
2022/02/15 12:34:09;;;;;;;62.07;6.73;;;8.60;99.70;;;;;;5052981;28;20505;-71
2022/02/15 12:36:36;;;;;;;4.20;2.10;;;8.70;99.70;;;;;;5040038;28;20447;-70
2022/02/15 12:39:04;;;;;;;10.83;2.67;;;8.60;99.70;;;;;;5052410;28;20472;-69
2022/02/15 12:41:36;;;;;;;12.40;2.80;;;8.70;99.70;;;;;;5052023;28;20868;-69
2022/02/15 12:44:04;;;;;;;28.03;5.27;;;8.80;99.70;;;;;;5052644;28;20447;-70
2022/02/15 12:46:31;;;;;;;3.03;2.23;;;8.90;99.70;;;;;;5051872;28;20503;-69
2022/02/15 12:49:01;;;;;;;53.47;5.23;;;8.70;99.70;;;;;;5051511;28;20475;-70
2022/02/15 12:51:33;;;;;;;98.10;9.37;;;8.70;99.70;;;;;;5067699;28;20446;-70
2022/02/15 12:54:00;;;;;;;5.63;2.30;;;8.60;99.70;;;;;;5068466;28;20459;-71
2022/02/15 12:56:29;;;;;;;5.40;2.23;;;8.50;99.70;;;;;;5067824;28;20443;-70
2022/02/15 12:58:57;;;;;;;8.40;2.80;;;8.40;99.70;;;;;;5068072;28;20485;-71
2022/02/15 13:01:26;;;;;;;11.03;2.70;;;8.40;99.70;;;;;;5066274;28;20949;-71
2022/02/15 13:03:53;;;;;;;5.07;2.50;;;8.30;99.70;;;;;;5068796;28;20451;-71
2022/02/15 13:06:23;;;;;;;17.37;3.20;;;8.30;99.70;;;;;;5060454;28;20448;-71
2022/02/15 13:08:53;;;;;;;4.20;2.20;;;8.40;99.70;;;;;;5055403;28;20470;-70